createdAt,value
2022-11-13T00:01:17.654Z,14.00
2022-11-13T00:04:02.525Z,13.63
2022-11-13T00:06:47.872Z,12.15
2022-11-13T00:09:33.377Z,13.05
2022-11-13T00:12:18.447Z,13.93
2022-11-13T00:15:03.917Z,13.77
2022-11-13T00:17:48.991Z,13.05
2022-11-13T00:20:35.751Z,13.40
2022-11-13T00:23:20.922Z,19.50
2022-11-13T00:26:14.845Z,17.15
2022-11-13T00:29:01.914Z,17.77
2022-11-13T00:31:47.438Z,19.25
2022-11-13T00:34:46.990Z,18.58
2022-11-13T00:37:33.038Z,13.50
2022-11-13T00:40:18.122Z,13.00
2022-11-13T00:43:03.087Z,14.07
2022-11-13T00:45:48.001Z,12.73
2022-11-13T00:48:33.932Z,12.98
2022-11-13T00:51:19.728Z,14.48
2022-11-13T00:54:04.886Z,14.50
2022-11-13T00:56:50.231Z,12.25
2022-11-13T00:59:35.356Z,15.82
2022-11-13T01:02:20.694Z,12.10
2022-11-13T01:05:06.060Z,13.75
2022-11-13T01:07:51.104Z,13.18
2022-11-13T01:10:40.689Z,11.80
2022-11-13T01:13:25.848Z,12.98
2022-11-13T01:16:13.858Z,15.18
2022-11-13T01:18:59.138Z,10.10
2022-11-13T01:21:44.433Z,13.55
2022-11-13T01:24:30.926Z,15.52
2022-11-13T01:27:16.277Z,14.40
2022-11-13T01:30:01.277Z,15.90
2022-11-13T01:32:46.441Z,14.23
2022-11-13T01:35:31.476Z,14.13
2022-11-13T01:38:16.426Z,14.45
2022-11-13T01:41:01.931Z,14.98
2022-11-13T01:43:47.887Z,12.15
2022-11-13T01:46:33.890Z,14.82
2022-11-13T01:49:37.000Z,15.00
2022-11-13T01:52:41.142Z,12.50
2022-11-13T01:55:26.447Z,15.95
2022-11-13T01:58:13.274Z,14.20
2022-11-13T02:00:58.443Z,13.23
2022-11-13T02:03:43.664Z,12.80
2022-11-13T02:06:36.595Z,15.27
2022-11-13T02:09:26.520Z,12.60
2022-11-13T02:12:14.842Z,14.07
2022-11-13T02:15:02.347Z,15.70
2022-11-13T02:17:52.590Z,11.98
2022-11-13T02:21:03.160Z,13.65
2022-11-13T02:24:05.249Z,12.07
2022-11-13T02:26:53.890Z,12.10
2022-11-13T02:29:38.886Z,12.77
2022-11-13T02:32:24.181Z,14.65
2022-11-13T02:35:09.219Z,16.33
2022-11-13T02:38:02.335Z,14.65
2022-11-13T02:40:47.269Z,14.85
2022-11-13T02:43:32.427Z,12.43
2022-11-13T02:46:17.490Z,11.77
2022-11-13T02:49:02.989Z,15.13
2022-11-13T02:51:48.456Z,17.92
2022-11-13T02:54:33.627Z,12.30
2022-11-13T02:57:18.900Z,14.05
2022-11-13T03:00:07.972Z,12.75
2022-11-13T03:02:57.516Z,14.02
2022-11-13T03:05:42.650Z,14.18
2022-11-13T03:08:28.168Z,14.68
2022-11-13T03:11:13.639Z,14.02
2022-11-13T03:13:58.897Z,12.68
2022-11-13T03:16:44.173Z,16.80
2022-11-13T03:19:29.521Z,16.77
2022-11-13T03:22:14.621Z,16.45
2022-11-13T03:24:59.768Z,14.57
2022-11-13T03:27:45.092Z,15.48
2022-11-13T03:30:30.533Z,13.35
2022-11-13T03:33:15.986Z,15.25
2022-11-13T03:36:01.033Z,14.20
2022-11-13T03:38:46.138Z,14.80
2022-11-13T03:41:30.987Z,13.32
2022-11-13T03:44:16.187Z,16.15
2022-11-13T03:47:01.645Z,18.35
2022-11-13T03:49:46.907Z,16.85
2022-11-13T03:52:31.993Z,14.10
2022-11-13T03:55:16.961Z,14.90
2022-11-13T03:58:01.924Z,16.33
2022-11-13T04:00:47.800Z,17.55
2022-11-13T04:03:32.826Z,15.18
2022-11-13T04:06:18.228Z,17.95
2022-11-13T04:09:03.128Z,20.50
2022-11-13T04:11:48.491Z,15.80
2022-11-13T04:14:33.339Z,15.68
2022-11-13T04:17:18.882Z,17.85
2022-11-13T04:20:04.448Z,19.52
2022-11-13T04:22:49.391Z,16.40
2022-11-13T04:25:34.868Z,15.65
2022-11-13T04:28:20.055Z,16.90
2022-11-13T04:31:06.462Z,13.25
2022-11-13T04:33:51.749Z,17.80
2022-11-13T04:36:37.226Z,14.10
2022-11-13T04:39:22.193Z,18.92
2022-11-13T04:42:25.888Z,15.40
2022-11-13T04:45:11.243Z,17.60
2022-11-13T04:47:56.600Z,14.52
2022-11-13T04:50:41.800Z,15.13
2022-11-13T04:53:26.980Z,15.10
2022-11-13T04:56:11.827Z,15.80
2022-11-13T04:58:57.180Z,18.70
2022-11-13T05:01:42.366Z,18.92
2022-11-13T05:04:27.691Z,15.68
2022-11-13T05:07:13.067Z,21.85
2022-11-13T05:09:58.420Z,16.88
2022-11-13T05:12:43.716Z,18.30
2022-11-13T05:15:28.946Z,21.65
2022-11-13T05:18:14.407Z,18.17
2022-11-13T05:20:59.406Z,16.58
2022-11-13T05:23:44.686Z,14.48
2022-11-13T05:26:30.087Z,14.82
2022-11-13T05:29:15.286Z,18.95
2022-11-13T05:32:00.558Z,14.63
2022-11-13T05:34:45.651Z,15.73
2022-11-13T05:37:31.094Z,17.13
2022-11-13T05:40:16.494Z,13.77
2022-11-13T05:43:01.395Z,15.18
2022-11-13T05:45:46.613Z,16.02
2022-11-13T05:48:32.157Z,17.75
2022-11-13T05:51:21.123Z,17.33
2022-11-13T05:54:06.475Z,14.32
2022-11-13T05:56:51.677Z,16.45
2022-11-13T05:59:37.173Z,17.60
2022-11-13T06:02:22.526Z,17.83
2022-11-13T06:05:07.876Z,19.90
2022-11-13T06:07:52.877Z,17.80
2022-11-13T06:10:38.289Z,19.23
2022-11-13T06:13:23.397Z,20.77
2022-11-13T06:16:11.681Z,17.20
2022-11-13T06:18:59.522Z,13.95
2022-11-13T06:21:44.641Z,14.77
2022-11-13T06:24:29.726Z,16.15
2022-11-13T06:27:15.082Z,38.25
2022-11-13T06:30:00.217Z,31.63
2022-11-13T06:32:45.161Z,31.92
2022-11-13T06:35:30.829Z,19.42
2022-11-13T06:38:16.006Z,16.88
2022-11-13T06:41:02.068Z,18.30
2022-11-13T06:43:47.747Z,19.75
2022-11-13T06:46:32.851Z,19.00
2022-11-13T06:49:17.944Z,24.30
2022-11-13T06:52:03.101Z,19.70
2022-11-13T06:54:48.320Z,17.50
2022-11-13T06:57:33.430Z,18.58
2022-11-13T07:00:18.822Z,20.75
2022-11-13T07:03:03.890Z,21.45
2022-11-13T07:05:49.615Z,23.75
2022-11-13T07:08:34.960Z,22.00
2022-11-13T07:11:23.335Z,20.25
2022-11-13T07:14:10.920Z,31.95
2022-11-13T07:17:09.354Z,42.65
2022-11-13T07:19:55.430Z,26.40
2022-11-13T07:22:40.366Z,28.65
2022-11-13T07:25:27.091Z,25.92
2022-11-13T07:28:12.561Z,29.33
2022-11-13T07:30:58.951Z,24.42
2022-11-13T07:33:44.984Z,21.13
2022-11-13T07:36:30.014Z,24.45
2022-11-13T07:39:14.978Z,22.83
2022-11-13T07:42:00.224Z,18.70
2022-11-13T07:44:54.432Z,18.17
2022-11-13T07:47:40.710Z,27.77
2022-11-13T07:50:31.274Z,18.30
2022-11-13T07:53:17.356Z,17.83
2022-11-13T07:56:04.047Z,15.75
2022-11-13T07:58:49.839Z,36.03
2022-11-13T08:01:35.029Z,17.02
2022-11-13T08:04:20.213Z,18.25
2022-11-13T08:07:05.484Z,15.88
2022-11-13T08:09:50.952Z,17.65
2022-11-13T08:12:36.029Z,17.55
2022-11-13T08:15:20.987Z,18.40
2022-11-13T08:18:06.666Z,17.00
2022-11-13T08:20:51.668Z,17.42
2022-11-13T08:23:36.582Z,18.20
2022-11-13T08:26:22.545Z,16.33
2022-11-13T08:29:07.571Z,17.67
2022-11-13T08:31:52.697Z,21.38
2022-11-13T08:34:40.030Z,16.60
2022-11-13T08:37:25.165Z,17.60
2022-11-13T08:40:10.860Z,16.90
2022-11-13T08:43:00.639Z,19.88
2022-11-13T08:45:47.195Z,20.33
2022-11-13T08:48:32.554Z,21.08
2022-11-13T08:51:18.330Z,19.10
2022-11-13T08:54:03.721Z,19.67
2022-11-13T08:56:52.982Z,27.77
2022-11-13T08:59:41.046Z,27.73
2022-11-13T09:02:27.183Z,27.58
2022-11-13T09:05:12.505Z,32.38
2022-11-13T09:07:59.402Z,27.75
2022-11-13T09:10:44.861Z,29.35
2022-11-13T09:13:30.718Z,34.75
2022-11-13T09:16:15.724Z,35.08
2022-11-13T09:19:01.244Z,50.05
2022-11-13T09:21:47.156Z,55.45
2022-11-13T09:24:32.878Z,31.65
2022-11-13T09:27:18.391Z,50.30
2022-11-13T09:30:04.153Z,29.67
2022-11-13T09:32:54.406Z,25.42
2022-11-13T09:35:39.394Z,28.60
2022-11-13T09:38:24.618Z,27.30
2022-11-13T09:41:11.511Z,26.52
2022-11-13T09:44:01.612Z,36.03
2022-11-13T09:47:19.980Z,29.33
2022-11-13T09:50:11.011Z,35.20
2022-11-13T09:52:57.212Z,29.80
2022-11-13T09:56:17.174Z,32.63
2022-11-13T09:59:11.892Z,27.85
2022-11-13T10:02:30.229Z,32.63
2022-11-13T10:05:15.500Z,35.60
2022-11-13T10:08:06.249Z,36.35
2022-11-13T10:10:59.481Z,67.10
2022-11-13T10:13:49.214Z,44.55
2022-11-13T10:16:45.073Z,39.67
2022-11-13T10:19:40.397Z,59.67
2022-11-13T10:22:35.958Z,24.98
2022-11-13T10:25:28.676Z,33.38
2022-11-13T10:31:51.043Z,27.25
2022-11-13T10:34:36.025Z,26.15
2022-11-13T10:37:55.994Z,35.50
2022-11-13T10:40:41.362Z,32.97
2022-11-13T10:43:27.320Z,27.70
2022-11-13T10:46:19.309Z,22.95
2022-11-13T10:49:21.784Z,24.67
2022-11-13T10:52:47.766Z,25.30
2022-11-13T10:55:40.692Z,21.55
2022-11-13T10:58:26.512Z,27.92
2022-11-13T11:01:21.905Z,47.88
2022-11-13T11:04:20.278Z,26.88
2022-11-13T11:07:21.563Z,25.63
2022-11-13T11:10:29.879Z,19.88
2022-11-13T11:13:22.779Z,21.52
2022-11-13T11:16:10.550Z,18.17
2022-11-13T11:19:04.139Z,22.13
2022-11-13T11:21:53.499Z,23.23
2022-11-13T11:24:45.304Z,21.55
2022-11-13T11:27:39.951Z,21.25
2022-11-13T11:30:26.799Z,19.98
2022-11-13T11:33:35.518Z,19.48
2022-11-13T11:36:41.902Z,19.98
2022-11-13T11:39:50.437Z,23.20
2022-11-13T11:43:01.401Z,20.58
2022-11-13T11:45:47.343Z,19.08
2022-11-13T11:48:34.408Z,21.58
2022-11-13T11:51:31.212Z,21.15
2022-11-13T11:54:42.299Z,27.02
2022-11-13T11:57:55.298Z,20.65
2022-11-13T12:00:50.153Z,22.83
2022-11-13T12:04:16.091Z,24.65
2022-11-13T12:07:37.849Z,24.13
2022-11-13T12:10:43.118Z,22.48
2022-11-13T12:13:31.614Z,21.83
2022-11-13T12:16:28.053Z,25.52
2022-11-13T12:19:23.264Z,21.70
2022-11-13T12:22:25.818Z,24.52
2022-11-13T12:25:24.532Z,24.13
2022-11-13T12:28:13.412Z,23.13
2022-11-13T12:31:11.752Z,30.02
2022-11-13T12:34:06.220Z,24.50
2022-11-13T12:36:52.876Z,25.48
2022-11-13T12:40:01.489Z,33.72
2022-11-13T12:42:51.340Z,24.70
2022-11-13T12:45:36.564Z,24.67
2022-11-13T12:48:28.438Z,31.92
2022-11-13T12:51:18.480Z,23.33
2022-11-13T12:54:03.857Z,27.30
2022-11-13T12:56:49.271Z,29.98
2022-11-13T12:59:39.184Z,27.55
2022-11-13T13:03:06.981Z,23.33
2022-11-13T13:06:20.604Z,26.65
2022-11-13T13:09:18.669Z,24.85
2022-11-13T13:12:31.815Z,24.15
2022-11-13T13:15:39.874Z,23.83
2022-11-13T13:18:32.314Z,26.15
2022-11-13T13:21:19.472Z,29.88
2022-11-13T13:24:26.076Z,26.02
2022-11-13T13:27:30.128Z,28.30
2022-11-13T13:30:21.356Z,35.38
2022-11-13T13:33:22.194Z,44.45
2022-11-13T13:36:29.508Z,31.98
2022-11-13T13:45:26.811Z,29.48
2022-11-13T13:48:15.450Z,31.85
2022-11-13T13:51:02.096Z,28.83
2022-11-13T13:53:49.136Z,35.42
2022-11-13T13:56:40.139Z,33.45
2022-11-13T13:59:32.023Z,43.08
2022-11-13T14:02:19.824Z,30.33
2022-11-13T14:05:29.064Z,31.73
2022-11-13T14:08:19.195Z,30.80
2022-11-13T14:11:18.224Z,33.10
2022-11-13T14:14:21.470Z,31.50
2022-11-13T14:17:08.881Z,31.83
2022-11-13T14:19:55.683Z,28.67
2022-11-13T14:22:43.018Z,31.83
2022-11-13T14:25:29.232Z,32.28
2022-11-13T14:28:53.645Z,34.75
2022-11-13T14:31:39.111Z,35.03
2022-11-13T14:34:24.411Z,33.80
2022-11-13T14:37:33.011Z,28.80
2022-11-13T14:40:26.772Z,37.53
2022-11-13T14:43:30.947Z,44.38
2022-11-13T14:46:44.224Z,39.55
2022-11-13T14:49:35.756Z,36.83
2022-11-13T14:52:26.118Z,39.83
2022-11-13T14:55:23.641Z,34.58
2022-11-13T14:58:12.808Z,39.67
2022-11-13T15:00:59.797Z,34.42
2022-11-13T15:03:46.393Z,39.13
2022-11-13T15:06:38.053Z,36.58
2022-11-13T15:09:25.406Z,37.15
2022-11-13T15:12:12.284Z,32.92
2022-11-13T15:14:57.344Z,36.60
2022-11-13T15:17:44.744Z,36.03
2022-11-13T15:20:30.927Z,33.75
2022-11-13T15:23:16.649Z,36.70
2022-11-13T15:26:01.934Z,35.15
2022-11-13T15:28:47.230Z,32.28
2022-11-13T15:31:34.032Z,36.42
2022-11-13T15:34:19.212Z,35.88
2022-11-13T15:37:12.116Z,36.22
2022-11-13T15:39:57.313Z,35.58
2022-11-13T15:42:43.754Z,37.65
2022-11-13T15:45:28.907Z,47.08
2022-11-13T15:48:13.961Z,36.53
2022-11-13T15:50:59.209Z,35.03
2022-11-13T15:53:48.359Z,31.70
2022-11-13T15:56:33.685Z,32.97
2022-11-13T15:59:18.650Z,35.28
2022-11-13T16:02:04.065Z,36.03
2022-11-13T16:04:56.500Z,32.70
2022-11-13T16:07:42.607Z,37.35
2022-11-13T16:10:27.750Z,34.92
2022-11-13T16:13:13.168Z,36.45
2022-11-13T16:15:59.647Z,39.28
2022-11-13T16:18:45.029Z,31.17
2022-11-13T16:21:30.806Z,31.90
2022-11-13T16:24:18.793Z,32.58
2022-11-13T16:27:06.541Z,35.60
2022-11-13T16:29:51.965Z,38.65
2022-11-13T16:32:36.962Z,38.72
2022-11-13T16:35:22.077Z,39.03
2022-11-13T16:38:12.845Z,38.47
2022-11-13T16:40:58.036Z,38.17
2022-11-13T16:43:44.252Z,35.10
2022-11-13T16:46:29.295Z,35.83
2022-11-13T16:49:19.051Z,36.58
2022-11-13T16:52:05.054Z,41.13
2022-11-13T16:54:51.512Z,38.22
2022-11-13T16:57:37.601Z,33.58
2022-11-13T17:00:25.376Z,37.00
2022-11-13T17:03:10.452Z,38.20
2022-11-13T17:05:55.628Z,31.00
2022-11-13T17:08:41.070Z,38.47
2022-11-13T17:11:29.399Z,30.42
2022-11-13T17:14:14.397Z,32.08
2022-11-13T17:16:59.725Z,31.55
2022-11-13T17:19:44.708Z,31.73
2022-11-13T17:22:29.819Z,33.40
2022-11-13T17:25:16.891Z,29.75
2022-11-13T17:28:01.827Z,33.90
2022-11-13T17:30:47.172Z,34.80
2022-11-13T17:33:32.460Z,33.85
2022-11-13T17:36:17.824Z,33.83
2022-11-13T17:39:04.066Z,36.63
2022-11-13T17:41:50.632Z,33.72
2022-11-13T17:44:36.061Z,34.53
2022-11-13T17:47:21.385Z,40.75
2022-11-13T17:50:08.026Z,36.00
2022-11-13T17:52:53.328Z,34.97
2022-11-13T17:55:38.408Z,35.15
2022-11-13T17:58:24.654Z,44.13
2022-11-13T18:01:16.121Z,34.47
2022-11-13T18:04:01.359Z,37.70
2022-11-13T18:06:46.994Z,39.85
2022-11-13T18:09:32.679Z,42.65
2022-11-13T18:12:18.214Z,42.42
2022-11-13T18:15:04.597Z,40.40
2022-11-13T18:17:49.961Z,57.22
2022-11-13T18:20:38.438Z,174.95
2022-11-13T18:23:23.901Z,73.47
2022-11-13T18:26:19.331Z,44.75
2022-11-13T18:29:04.915Z,42.22
2022-11-13T18:31:50.119Z,40.95
2022-11-13T18:34:35.216Z,42.92
2022-11-13T18:37:20.415Z,46.00
2022-11-13T18:40:06.805Z,37.25
2022-11-13T18:42:52.032Z,41.25
2022-11-13T18:45:37.612Z,43.10
2022-11-13T18:48:23.105Z,45.75
2022-11-13T18:51:12.142Z,36.17
2022-11-13T18:53:57.300Z,38.38
2022-11-13T18:56:42.756Z,37.58
2022-11-13T18:59:28.437Z,39.67
2022-11-13T19:02:14.117Z,33.42
2022-11-13T19:04:59.544Z,38.53
2022-11-13T19:07:44.784Z,40.22
2022-11-13T19:10:30.384Z,36.30
2022-11-13T19:13:15.562Z,45.30
2022-11-13T19:16:05.870Z,42.83
2022-11-13T19:18:54.192Z,41.33
2022-11-13T19:21:39.212Z,40.97
2022-11-13T19:24:24.154Z,51.50
2022-11-13T19:27:09.389Z,48.65
2022-11-13T19:29:54.654Z,53.60
2022-11-13T19:32:39.911Z,76.00
2022-11-13T19:35:26.314Z,53.72
2022-11-13T19:38:11.619Z,46.60
2022-11-13T19:40:57.140Z,46.85
2022-11-13T19:43:42.234Z,42.17
2022-11-13T19:46:28.651Z,35.20
2022-11-13T19:49:13.762Z,35.75
2022-11-13T19:52:01.425Z,41.28
2022-11-13T19:54:46.859Z,44.42
2022-11-13T19:57:31.955Z,52.78
2022-11-13T20:00:17.927Z,52.75
2022-11-13T20:03:07.416Z,56.30
2022-11-13T20:06:01.030Z,44.25
2022-11-13T20:08:46.107Z,42.78
2022-11-13T20:11:31.477Z,45.10
2022-11-13T20:14:16.774Z,38.40
2022-11-13T20:17:01.701Z,47.95
2022-11-13T20:19:47.023Z,38.28
2022-11-13T20:22:32.384Z,40.50
2022-11-13T20:25:17.787Z,38.33
2022-11-13T20:28:02.783Z,39.03
2022-11-13T20:30:48.319Z,40.25
2022-11-13T20:33:34.918Z,39.53
2022-11-13T20:36:20.466Z,43.03
2022-11-13T20:39:09.103Z,38.40
2022-11-13T20:41:54.890Z,34.20
2022-11-13T20:44:40.158Z,34.78
2022-11-13T20:47:25.365Z,34.63
2022-11-13T20:50:11.591Z,41.45
2022-11-13T20:52:56.778Z,34.22
2022-11-13T20:55:43.105Z,38.40
2022-11-13T20:58:28.679Z,44.25
2022-11-13T21:01:16.882Z,40.15
2022-11-13T21:04:02.888Z,35.83
2022-11-13T21:06:48.435Z,34.85
2022-11-13T21:09:33.998Z,38.55
2022-11-13T21:12:19.330Z,38.78
2022-11-13T21:15:05.231Z,35.88
2022-11-13T21:17:51.447Z,36.28
2022-11-13T21:20:37.389Z,38.00
2022-11-13T21:23:22.953Z,37.45
2022-11-13T21:26:09.185Z,34.63
2022-11-13T21:28:56.277Z,39.28
2022-11-13T21:31:41.631Z,35.45
2022-11-13T21:34:26.570Z,32.92
2022-11-13T21:37:14.306Z,37.67
2022-11-13T21:39:59.804Z,31.70
2022-11-13T21:42:45.360Z,35.55
2022-11-13T21:45:33.512Z,44.55
2022-11-13T21:48:18.637Z,35.08
2022-11-13T21:51:04.173Z,41.05
2022-11-13T21:53:49.672Z,37.33
2022-11-13T21:56:36.629Z,34.30
2022-11-13T21:59:21.632Z,37.33
2022-11-13T22:02:10.448Z,31.42
2022-11-13T22:04:55.617Z,32.42
2022-11-13T22:07:40.718Z,34.92
2022-11-13T22:15:46.910Z,36.67
2022-11-13T22:18:31.724Z,33.00
2022-11-13T22:21:16.587Z,37.10
2022-11-13T22:24:01.823Z,34.90
2022-11-13T22:26:47.076Z,44.45
2022-11-13T22:29:31.448Z,38.90
2022-11-13T22:32:15.844Z,40.58
2022-11-13T22:41:00.134Z,35.80
2022-11-13T22:43:46.515Z,40.60
2022-11-13T22:46:32.783Z,39.53
2022-11-13T22:49:18.421Z,44.75
2022-11-13T22:52:03.143Z,42.80
2022-11-13T22:54:47.611Z,42.88
2022-11-13T23:00:21.791Z,38.90
2022-11-13T23:03:06.194Z,40.97
2022-11-13T23:05:50.693Z,39.65
2022-11-13T23:08:38.292Z,46.65
2022-11-13T23:14:09.928Z,45.22
2022-11-13T23:16:54.897Z,43.33
2022-11-13T23:19:39.875Z,47.80
2022-11-13T23:22:24.774Z,46.83
2022-11-13T23:25:10.115Z,45.22
2022-11-13T23:27:55.246Z,43.95
2022-11-13T23:30:40.511Z,43.50
2022-11-13T23:33:25.536Z,43.22
2022-11-13T23:36:12.498Z,45.10
2022-11-13T23:38:57.648Z,48.92
2022-11-13T23:41:42.492Z,44.95
2022-11-13T23:44:27.798Z,43.47
2022-11-13T23:47:12.775Z,44.03
2022-11-13T23:49:58.265Z,39.10
2022-11-13T23:52:43.524Z,50.78
2022-11-13T23:55:28.901Z,40.50
2022-11-13T23:58:15.767Z,45.15
